Time;durP1;ratioP1;P1;durP2;ratioP2;P2;SDS_P1;SDS_P2;PMS_P1;PMS_P2;Temp;Humidity;BMP_temperature;BMP_pressure;BME280_temperature;BME280_humidity;BME280_pressure;Samples;Min_cycle;Max_cycle;Signal;HPM_P1;HPM_P2
2021/04/27 00:02:15;;;;;;;3.55;2.20;;;;;;;;;;5076352;28;20206;-62
2021/04/27 00:04:41;;;;;;;2.60;2.25;;;;;;;;;;5074608;28;20221;-60
2021/04/27 00:07:08;;;;;;;3.55;2.25;;;;;;;;;;5078724;28;20213;-60
2021/04/27 00:09:35;;;;;;;4.78;2.42;;;;;;;;;;5088468;28;20221;-61
2021/04/27 00:12:02;;;;;;;6.25;2.58;;;;;;;;;;5089415;28;20212;-60
2021/04/27 00:14:29;;;;;;;2.22;1.75;;;;;;;;;;5088244;28;20201;-60
2021/04/27 00:16:56;;;;;;;13.07;5.47;;;;;;;;;;5080366;28;20241;-61
2021/04/27 00:19:24;;;;;;;5.65;3.15;;;;;;;;;;5073868;28;20226;-60
2021/04/27 00:21:50;;;;;;;3.60;2.25;;;;;;;;;;5073524;28;20240;-60
2021/04/27 00:24:17;;;;;;;3.60;1.90;;;;;;;;;;5077129;28;20205;-61
2021/04/27 00:26:44;;;;;;;5.78;2.88;;;;;;;;;;5078256;28;20218;-61
2021/04/27 00:29:11;;;;;;;5.00;2.50;;;;;;;;;;5077805;28;20226;-62
2021/04/27 00:31:37;;;;;;;4.55;2.10;;;;;;;;;;5077715;28;20197;-61
2021/04/27 00:34:04;;;;;;;4.88;3.25;;;;;;;;;;5077555;28;20692;-60
2021/04/27 00:36:32;;;;;;;3.03;1.73;;;;;;;;;;5077572;28;20243;-61
2021/04/27 00:38:59;;;;;;;3.88;2.45;;;;;;;;;;5077380;28;20198;-60
2021/04/27 00:41:26;;;;;;;2.88;2.00;;;;;;;;;;5077574;28;20208;-60
2021/04/27 00:43:52;;;;;;;4.65;3.40;;;;;;;;;;5077761;28;20202;-60
2021/04/27 00:46:19;;;;;;;4.95;2.00;;;;;;;;;;5077553;28;20229;-59
2021/04/27 00:48:46;;;;;;;2.45;2.00;;;;;;;;;;5077280;28;20598;-60
2021/04/27 00:51:13;;;;;;;4.10;2.45;;;;;;;;;;5077429;28;20204;-60
2021/04/27 00:53:41;;;;;;;8.60;2.65;;;;;;;;;;5077189;28;20247;-59
2021/04/27 00:56:07;;;;;;;3.42;2.40;;;;;;;;;;5077100;28;20225;-61
2021/04/27 00:58:34;;;;;;;6.65;3.30;;;;;;;;;;5076869;28;20200;-60
2021/04/27 01:01:01;;;;;;;2.55;2.25;;;;;;;;;;5077577;28;20204;-60
2021/04/27 01:03:28;;;;;;;4.45;3.95;;;;;;;;;;5076873;28;20209;-60
2021/04/27 01:05:55;;;;;;;2.70;2.20;;;;;;;;;;5077009;28;20298;-60
2021/04/27 01:08:23;;;;;;;5.15;2.83;;;;;;;;;;5076700;28;20734;-60
2021/04/27 01:10:54;;;;;;;4.63;3.10;;;;;;;;;;5076740;28;20212;-60
2021/04/27 01:13:23;;;;;;;6.05;2.85;;;;;;;;;;5076759;28;20190;-60
2021/04/27 01:15:51;;;;;;;7.22;4.30;;;;;;;;;;5076664;28;20221;-61
2021/04/27 01:18:18;;;;;;;5.38;2.75;;;;;;;;;;5076580;28;20296;-61
2021/04/27 01:20:47;;;;;;;6.72;3.10;;;;;;;;;;5076832;28;20208;-60
2021/04/27 01:23:29;;;;;;;3.25;2.40;;;;;;;;;;5076889;28;20209;-61
2021/04/27 01:26:00;;;;;;;5.32;2.65;;;;;;;;;;5054460;28;20229;-60
2021/04/27 01:28:29;;;;;;;13.77;2.58;;;;;;;;;;5082474;28;20210;-59
2021/04/27 01:30:56;;;;;;;3.35;2.63;;;;;;;;;;5078445;28;20209;-60
2021/04/27 01:33:25;;;;;;;6.65;2.95;;;;;;;;;;5092957;28;20231;-60
2021/04/27 01:35:53;;;;;;;4.90;2.85;;;;;;;;;;5085907;28;20229;-60
2021/04/27 01:38:21;;;;;;;5.57;2.78;;;;;;;;;;5093371;28;20201;-60
2021/04/27 01:40:47;;;;;;;6.20;3.92;;;;;;;;;;5092456;28;20205;-60
2021/04/27 01:43:14;;;;;;;5.60;2.97;;;;;;;;;;5077486;28;20256;-59
2021/04/27 01:45:42;;;;;;;4.78;2.30;;;;;;;;;;5077413;28;20222;-60
2021/04/27 01:48:09;;;;;;;4.55;2.53;;;;;;;;;;5077891;28;20600;-60
2021/04/27 01:50:36;;;;;;;2.70;1.90;;;;;;;;;;5079975;28;20208;-59
2021/04/27 01:53:03;;;;;;;5.10;3.42;;;;;;;;;;5085481;28;20300;-60
2021/04/27 01:55:29;;;;;;;4.07;3.17;;;;;;;;;;5087047;28;20222;-60
2021/04/27 01:57:56;;;;;;;7.90;3.85;;;;;;;;;;5086508;28;20210;-60
2021/04/27 02:00:24;;;;;;;4.60;3.45;;;;;;;;;;5083952;28;20691;-60
2021/04/27 02:02:52;;;;;;;4.32;1.80;;;;;;;;;;5091356;28;20231;-60
2021/04/27 02:05:19;;;;;;;3.95;2.10;;;;;;;;;;5088550;28;20232;-60
2021/04/27 02:07:46;;;;;;;3.90;2.10;;;;;;;;;;5085983;28;20682;-60
2021/04/27 02:10:14;;;;;;;5.78;2.35;;;;;;;;;;5084194;28;20202;-59
2021/04/27 02:12:42;;;;;;;3.13;1.90;;;;;;;;;;5084235;28;20227;-60
2021/04/27 02:15:09;;;;;;;3.90;2.33;;;;;;;;;;5077656;28;20217;-60
2021/04/27 02:17:39;;;;;;;5.57;3.17;;;;;;;;;;5077081;28;20209;-59
2021/04/27 02:20:08;;;;;;;5.07;2.70;;;;;;;;;;5076994;28;20684;-60
2021/04/27 02:22:35;;;;;;;4.57;2.05;;;;;;;;;;5076971;28;20665;-60
2021/04/27 02:25:02;;;;;;;3.78;2.25;;;;;;;;;;5075296;28;20221;-61
2021/04/27 02:27:30;;;;;;;4.07;1.83;;;;;;;;;;5075341;28;20228;-58
2021/04/27 02:29:57;;;;;;;2.25;1.88;;;;;;;;;;5075390;28;20225;-60
2021/04/27 02:32:24;;;;;;;7.05;2.55;;;;;;;;;;5075181;28;20254;-58
2021/04/27 02:34:51;;;;;;;3.97;2.88;;;;;;;;;;5075519;28;20201;-59
2021/04/27 02:37:19;;;;;;;5.25;2.65;;;;;;;;;;5075250;28;20205;-59
2021/04/27 02:39:46;;;;;;;3.10;2.28;;;;;;;;;;5075382;28;20201;-60
2021/04/27 02:42:13;;;;;;;1.40;1.13;;;;;;;;;;5075091;28;20201;-59
2021/04/27 02:44:40;;;;;;;4.47;2.70;;;;;;;;;;5075299;28;20568;-60
2021/04/27 02:47:06;;;;;;;5.00;2.92;;;;;;;;;;5074101;28;20200;-60
2021/04/27 02:49:33;;;;;;;3.67;1.85;;;;;;;;;;5074536;28;20224;-60
2021/04/27 02:52:00;;;;;;;3.33;2.30;;;;;;;;;;5074760;28;20204;-60
2021/04/27 02:54:27;;;;;;;3.60;2.20;;;;;;;;;;5074814;28;20209;-60
2021/04/27 02:56:54;;;;;;;3.70;2.35;;;;;;;;;;5076068;28;20225;-59
2021/04/27 02:59:21;;;;;;;5.25;2.95;;;;;;;;;;5076869;28;20221;-60
2021/04/27 03:01:48;;;;;;;3.47;1.80;;;;;;;;;;5079890;28;20201;-60
2021/04/27 03:04:15;;;;;;;5.88;2.17;;;;;;;;;;5080658;28;20208;-59
2021/04/27 03:06:41;;;;;;;6.40;3.17;;;;;;;;;;5078419;28;20235;-60
2021/04/27 03:09:08;;;;;;;3.05;2.65;;;;;;;;;;5076602;28;20228;-59
2021/04/27 03:11:36;;;;;;;3.55;2.58;;;;;;;;;;5075196;28;20197;-60
2021/04/27 03:14:02;;;;;;;4.88;2.30;;;;;;;;;;5074556;28;20201;-59
2021/04/27 03:16:29;;;;;;;2.42;2.15;;;;;;;;;;5074850;28;20630;-60
2021/04/27 03:18:56;;;;;;;2.95;2.38;;;;;;;;;;5074672;28;20217;-59
2021/04/27 03:21:23;;;;;;;5.10;2.40;;;;;;;;;;5075466;28;20259;-61
2021/04/27 03:23:50;;;;;;;2.97;1.98;;;;;;;;;;5075034;28;20205;-60
2021/04/27 03:26:16;;;;;;;3.28;1.70;;;;;;;;;;5075005;28;20229;-60
2021/04/27 03:28:44;;;;;;;5.50;2.50;;;;;;;;;;5074812;28;20255;-59
2021/04/27 03:31:11;;;;;;;4.85;1.98;;;;;;;;;;5074167;28;20203;-62
2021/04/27 03:33:38;;;;;;;3.28;2.00;;;;;;;;;;5074234;28;20201;-60
2021/04/27 03:36:05;;;;;;;3.60;2.40;;;;;;;;;;5073934;28;20244;-60
2021/04/27 03:38:32;;;;;;;2.92;1.60;;;;;;;;;;5073708;28;20224;-60
2021/04/27 03:40:58;;;;;;;3.10;1.70;;;;;;;;;;5073578;28;20685;-61
2021/04/27 03:43:25;;;;;;;3.00;2.03;;;;;;;;;;5073667;28;20616;-60
2021/04/27 03:45:53;;;;;;;2.28;2.00;;;;;;;;;;5073847;28;20282;-59
2021/04/27 03:48:21;;;;;;;2.35;1.85;;;;;;;;;;5073759;28;20220;-60
2021/04/27 03:50:48;;;;;;;6.97;2.22;;;;;;;;;;5073740;28;20201;-61
2021/04/27 03:53:15;;;;;;;2.50;2.00;;;;;;;;;;5073872;28;20205;-60
2021/04/27 03:55:42;;;;;;;3.92;2.10;;;;;;;;;;5074492;28;20231;-59
2021/04/27 03:58:09;;;;;;;7.40;2.90;;;;;;;;;;5077304;28;20212;-60
2021/04/27 04:00:36;;;;;;;3.50;2.50;;;;;;;;;;5079183;28;20197;-60
2021/04/27 04:03:04;;;;;;;2.10;1.90;;;;;;;;;;5080834;28;20201;-60
2021/04/27 04:08:02;;;;;;;6.63;2.13;;;;;;;;;;5112289;27;21045;-60
2021/04/27 04:10:28;;;;;;;2.70;1.90;;;;;;;;;;5111544;28;20198;-60
2021/04/27 04:12:55;;;;;;;2.65;1.90;;;;;;;;;;5111709;28;20556;-60
2021/04/27 04:15:23;;;;;;;6.43;2.50;;;;;;;;;;5111437;28;20221;-59
2021/04/27 04:17:50;;;;;;;4.70;2.67;;;;;;;;;;5111531;28;20597;-59
2021/04/27 04:20:18;;;;;;;2.50;2.17;;;;;;;;;;5111504;28;20196;-60
2021/04/27 04:22:45;;;;;;;4.28;3.28;;;;;;;;;;5111050;28;20205;-61
2021/04/27 04:25:14;;;;;;;10.05;2.75;;;;;;;;;;5111328;28;20224;-61
2021/04/27 04:27:40;;;;;;;15.63;3.42;;;;;;;;;;5110847;28;20217;-60
2021/04/27 04:30:09;;;;;;;5.57;2.20;;;;;;;;;;5111452;28;20749;-61
2021/04/27 04:32:36;;;;;;;7.05;3.10;;;;;;;;;;5111387;28;20250;-60
2021/04/27 04:35:03;;;;;;;6.28;2.63;;;;;;;;;;5111403;28;20234;-60
2021/04/27 04:37:30;;;;;;;5.45;2.80;;;;;;;;;;5112928;28;20206;-60
2021/04/27 04:39:57;;;;;;;3.70;2.17;;;;;;;;;;5111220;28;20202;-60
2021/04/27 04:42:24;;;;;;;6.95;3.00;;;;;;;;;;5113463;28;20262;-60
2021/04/27 04:44:51;;;;;;;9.15;3.28;;;;;;;;;;5114510;28;20756;-60
2021/04/27 04:47:18;;;;;;;8.05;4.38;;;;;;;;;;5111798;28;20215;-60
2021/04/27 04:49:45;;;;;;;2.50;2.30;;;;;;;;;;5111551;28;20201;-60
2021/04/27 04:52:12;;;;;;;2.60;2.05;;;;;;;;;;5112225;28;20223;-59
2021/04/27 04:54:38;;;;;;;5.75;3.00;;;;;;;;;;5112512;28;20203;-60
2021/04/27 04:57:05;;;;;;;5.18;2.70;;;;;;;;;;5113020;28;20621;-59
2021/04/27 04:59:33;;;;;;;8.88;3.20;;;;;;;;;;5112236;28;20693;-60
2021/04/27 05:02:00;;;;;;;6.90;2.60;;;;;;;;;;5112810;28;20546;-61
2021/04/27 05:04:27;;;;;;;3.63;2.40;;;;;;;;;;5112080;28;20204;-60
2021/04/27 05:06:58;;;;;;;6.07;2.50;;;;;;;;;;5110357;28;20229;-61
2021/04/27 05:09:25;;;;;;;6.07;2.10;;;;;;;;;;5110501;28;20188;-59
2021/04/27 05:11:51;;;;;;;5.18;2.78;;;;;;;;;;5110316;28;20227;-60
2021/04/27 05:14:18;;;;;;;4.63;2.35;;;;;;;;;;5110321;28;20202;-60
2021/04/27 05:16:46;;;;;;;4.43;2.50;;;;;;;;;;5110158;28;20223;-60
2021/04/27 05:19:13;;;;;;;4.97;2.05;;;;;;;;;;5097602;28;20200;-60
2021/04/27 05:21:40;;;;;;;4.18;2.75;;;;;;;;;;5096533;28;20200;-60
2021/04/27 05:24:07;;;;;;;5.47;2.45;;;;;;;;;;5096725;28;20212;-61
2021/04/27 05:26:34;;;;;;;9.05;3.55;;;;;;;;;;5096228;28;20228;-60
2021/04/27 05:29:01;;;;;;;4.90;2.60;;;;;;;;;;5097402;28;20197;-61
2021/04/27 05:31:28;;;;;;;5.32;2.45;;;;;;;;;;5096459;28;20628;-59
2021/04/27 05:33:55;;;;;;;8.55;2.92;;;;;;;;;;5096487;28;20207;-60
2021/04/27 05:36:22;;;;;;;5.38;3.05;;;;;;;;;;5096323;28;20264;-60
2021/04/27 05:38:49;;;;;;;4.30;2.60;;;;;;;;;;5096951;28;20203;-60
2021/04/27 05:41:15;;;;;;;6.07;2.58;;;;;;;;;;5096725;28;20202;-62
2021/04/27 05:43:42;;;;;;;11.20;3.55;;;;;;;;;;5095955;28;20202;-61
2021/04/27 05:46:09;;;;;;;5.20;2.90;;;;;;;;;;5096194;28;20587;-60
2021/04/27 05:48:36;;;;;;;8.48;3.38;;;;;;;;;;5096118;28;20203;-60
2021/04/27 05:51:04;;;;;;;6.65;3.10;;;;;;;;;;5096107;28;20204;-60
2021/04/27 05:53:31;;;;;;;6.68;3.30;;;;;;;;;;5095727;28;20578;-60
2021/04/27 05:55:58;;;;;;;12.48;3.97;;;;;;;;;;5095827;28;20224;-60
2021/04/27 05:58:24;;;;;;;5.88;3.00;;;;;;;;;;5100182;28;20208;-60
2021/04/27 06:00:51;;;;;;;6.05;2.92;;;;;;;;;;5111829;28;20317;-60
2021/04/27 06:03:18;;;;;;;6.25;3.33;;;;;;;;;;5113192;28;20207;-61
2021/04/27 06:05:45;;;;;;;9.80;3.92;;;;;;;;;;5114446;28;20254;-61
2021/04/27 06:08:12;;;;;;;5.60;3.35;;;;;;;;;;5106903;28;20206;-61
2021/04/27 06:10:39;;;;;;;4.50;3.60;;;;;;;;;;5096030;28;20210;-60
2021/04/27 06:13:06;;;;;;;7.32;4.00;;;;;;;;;;5096286;28;20208;-59
2021/04/27 06:15:32;;;;;;;9.95;3.80;;;;;;;;;;5095751;28;20441;-60
2021/04/27 06:17:59;;;;;;;7.50;3.17;;;;;;;;;;5096139;28;20212;-61
2021/04/27 06:20:26;;;;;;;5.65;3.35;;;;;;;;;;5095480;28;20598;-60
2021/04/27 06:22:53;;;;;;;5.20;3.20;;;;;;;;;;5095400;28;20205;-61
2021/04/27 06:25:21;;;;;;;8.20;3.70;;;;;;;;;;5095388;28;20219;-60
2021/04/27 06:27:48;;;;;;;6.05;3.45;;;;;;;;;;5094645;28;20221;-61
2021/04/27 06:30:16;;;;;;;6.68;3.40;;;;;;;;;;5094177;28;20204;-60
2021/04/27 06:32:43;;;;;;;10.50;4.10;;;;;;;;;;5095191;28;20228;-61
2021/04/27 06:35:10;;;;;;;3.33;3.03;;;;;;;;;;5095009;28;20309;-61
2021/04/27 06:37:37;;;;;;;6.57;3.80;;;;;;;;;;5095151;28;20197;-60
2021/04/27 06:40:04;;;;;;;7.75;4.15;;;;;;;;;;5094879;28;20211;-60
2021/04/27 06:42:31;;;;;;;5.32;3.30;;;;;;;;;;5096257;28;20209;-61
2021/04/27 06:44:58;;;;;;;3.47;2.78;;;;;;;;;;5095951;28;20262;-61
2021/04/27 06:47:25;;;;;;;4.55;3.03;;;;;;;;;;5095332;28;20269;-61
2021/04/27 06:49:54;;;;;;;4.93;3.10;;;;;;;;;;5095484;28;20204;-60
2021/04/27 06:52:21;;;;;;;3.72;3.10;;;;;;;;;;5096038;28;20207;-61
2021/04/27 06:54:48;;;;;;;4.22;3.10;;;;;;;;;;5095226;28;20203;-60
2021/04/27 06:57:15;;;;;;;4.75;2.75;;;;;;;;;;5095170;28;20196;-61
2021/04/27 06:59:42;;;;;;;5.32;2.75;;;;;;;;;;5095156;28;20264;-61
2021/04/27 07:02:10;;;;;;;4.45;2.70;;;;;;;;;;5095392;28;20197;-60
2021/04/27 07:04:36;;;;;;;4.25;2.50;;;;;;;;;;5094541;28;20203;-59
2021/04/27 07:07:03;;;;;;;5.60;3.15;;;;;;;;;;5094181;28;20220;-61
2021/04/27 07:09:30;;;;;;;8.18;3.03;;;;;;;;;;5094349;28;20201;-61
2021/04/27 07:11:58;;;;;;;4.82;3.30;;;;;;;;;;5094393;28;20280;-60
2021/04/27 07:14:24;;;;;;;4.55;3.55;;;;;;;;;;5094244;28;20204;-61
2021/04/27 07:16:52;;;;;;;5.90;3.13;;;;;;;;;;5094327;28;20247;-59
2021/04/27 07:19:19;;;;;;;11.05;3.60;;;;;;;;;;5094296;28;20638;-61
2021/04/27 07:21:46;;;;;;;7.57;3.72;;;;;;;;;;5093999;28;20207;-59
2021/04/27 07:24:12;;;;;;;5.35;2.88;;;;;;;;;;5095148;28;20429;-60
2021/04/27 07:26:40;;;;;;;4.10;3.10;;;;;;;;;;5102280;28;20220;-61
2021/04/27 07:29:07;;;;;;;4.18;3.13;;;;;;;;;;5103624;28;20675;-60
2021/04/27 07:31:34;;;;;;;5.10;3.38;;;;;;;;;;5104723;28;20208;-61
2021/04/27 07:34:02;;;;;;;4.32;3.47;;;;;;;;;;5105145;28;20205;-60
2021/04/27 07:36:28;;;;;;;3.90;3.28;;;;;;;;;;5104626;28;20261;-60
2021/04/27 07:38:55;;;;;;;4.07;3.28;;;;;;;;;;5105750;28;20315;-61
2021/04/27 07:41:22;;;;;;;3.42;3.13;;;;;;;;;;5101805;28;20207;-60
2021/04/27 07:43:49;;;;;;;4.68;3.13;;;;;;;;;;5100882;28;20211;-61
2021/04/27 07:46:15;;;;;;;4.18;3.03;;;;;;;;;;5101044;28;20227;-59
2021/04/27 07:48:42;;;;;;;5.32;3.47;;;;;;;;;;5101112;28;20204;-58
2021/04/27 07:51:10;;;;;;;6.32;3.05;;;;;;;;;;5099996;28;20196;-59
2021/04/27 07:53:37;;;;;;;4.88;3.30;;;;;;;;;;5099917;28;20200;-60
2021/04/27 07:56:04;;;;;;;6.05;2.95;;;;;;;;;;5100299;28;20220;-60
2021/04/27 07:58:31;;;;;;;4.15;2.88;;;;;;;;;;5100297;28;20196;-60
2021/04/27 08:00:57;;;;;;;4.72;2.83;;;;;;;;;;5100249;28;20579;-60
2021/04/27 08:03:24;;;;;;;4.95;2.80;;;;;;;;;;5100097;28;20325;-61
2021/04/27 08:05:51;;;;;;;4.60;2.90;;;;;;;;;;5098367;28;20235;-61
2021/04/27 08:08:19;;;;;;;3.78;2.75;;;;;;;;;;5095326;28;20617;-61
2021/04/27 08:10:46;;;;;;;4.32;2.63;;;;;;;;;;5094602;28;20668;-61
2021/04/27 08:13:13;;;;;;;5.47;2.85;;;;;;;;;;5094193;28;20219;-61
2021/04/27 08:15:41;;;;;;;3.40;2.90;;;;;;;;;;5093766;28;20231;-61
2021/04/27 08:18:08;;;;;;;5.93;2.70;;;;;;;;;;5093159;28;20314;-61
2021/04/27 08:20:37;;;;;;;4.00;2.10;;;;;;;;;;5093694;28;20257;-62
2021/04/27 08:23:04;;;;;;;5.17;2.80;;;;;;;;;;5093797;28;20201;-60
2021/04/27 08:25:32;;;;;;;4.17;2.47;;;;;;;;;;5093228;28;20471;-62
2021/04/27 08:27:59;;;;;;;3.88;2.20;;;;;;;;;;5093631;28;20480;-61
2021/04/27 08:30:26;;;;;;;12.73;7.77;;;;;;;;;;5093209;28;20211;-60
2021/04/27 08:32:53;;;;;;;4.82;2.72;;;;;;;;;;5093086;28;20436;-61
2021/04/27 08:35:20;;;;;;;3.83;2.70;;;;;;;;;;5093137;28;20651;-62
2021/04/27 08:37:47;;;;;;;3.23;2.53;;;;;;;;;;5093293;28;20453;-61
2021/04/27 08:40:15;;;;;;;4.00;2.77;;;;;;;;;;5093458;28;20450;-58
2021/04/27 08:42:43;;;;;;;16.57;3.20;;;;;;;;;;5093341;28;20469;-60
2021/04/27 08:45:11;;;;;;;7.40;2.17;;;;;;;;;;5093265;28;20463;-61
2021/04/27 08:47:38;;;;;;;3.13;2.70;;;;;;;;;;5093436;28;20482;-62
2021/04/27 08:50:06;;;;;;;4.47;2.20;;;;;;;;;;5093561;28;20450;-61
2021/04/27 08:52:33;;;;;;;9.43;2.70;;;;;;;;;;5093159;28;20484;-61
2021/04/27 08:55:00;;;;;;;3.27;2.30;;;;;;;;;;5096601;28;20443;-60
2021/04/27 08:57:27;;;;;;;5.50;2.70;;;;;;;;;;5097394;28;20438;-60
2021/04/27 08:59:55;;;;;;;10.27;3.20;;;;;;;;;;5097219;28;20935;-60
2021/04/27 09:02:27;;;;;;;5.13;2.80;;;;;;;;;;5097026;28;20439;-61
2021/04/27 09:04:54;;;;;;;6.68;2.67;;;;;;;;;;5096076;28;20451;-59
2021/04/27 09:07:22;;;;;;;5.07;2.57;;;;;;;;;;5096620;28;20216;-60
2021/04/27 09:09:49;;;;;;;5.03;2.45;;;;;;;;;;5096838;28;20444;-60
2021/04/27 09:12:20;;;;;;;4.80;2.43;;;;;;;;;;5097809;28;20285;-61
2021/04/27 09:14:47;;;;;;;2.73;2.30;;;;;;;;;;5096812;28;20470;-59
2021/04/27 09:17:15;;;;;;;6.00;2.37;;;;;;;;;;5096409;28;20902;-60
2021/04/27 09:19:44;;;;;;;3.53;2.37;;;;;;;;;;5096399;28;20446;-61
2021/04/27 09:22:12;;;;;;;4.93;2.80;;;;;;;;;;5096946;28;20450;-61
2021/04/27 09:24:40;;;;;;;2.47;2.07;;;;;;;;;;5097300;28;20470;-62
2021/04/27 09:27:07;;;;;;;4.97;2.80;;;;;;;;;;5096545;28;20523;-60
2021/04/27 09:29:35;;;;;;;3.60;2.00;;;;;;;;;;5096611;28;20448;-64
2021/04/27 09:32:02;;;;;;;5.87;2.80;;;;;;;;;;5097044;28;20500;-61
2021/04/27 09:34:30;;;;;;;5.40;3.20;;;;;;;;;;5095934;28;20504;-61
2021/04/27 09:36:58;;;;;;;3.30;2.17;;;;;;;;;;5095893;28;20488;-61
2021/04/27 09:39:31;;;;;;;3.83;2.17;;;;;;;;;;5096318;28;20504;-62
2021/04/27 09:42:03;;;;;;;2.57;2.13;;;;;;;;;;5095878;28;20484;-61
2021/04/27 09:44:31;;;;;;;5.27;2.30;;;;;;;;;;5095938;28;20446;-63
2021/04/27 09:47:08;;;;;;;3.13;2.90;;;;;;;;;;5095893;28;20488;-64
2021/04/27 09:49:36;;;;;;;7.20;2.90;;;;;;;;;;5095933;28;20446;-62
2021/04/27 09:52:07;;;;;;;4.33;2.07;;;;;;;;;;5096131;28;20496;-62
2021/04/27 09:54:35;;;;;;;5.40;2.10;;;;;;;;;;5096008;28;20524;-61
2021/04/27 09:57:02;;;;;;;2.20;1.93;;;;;;;;;;5096036;28;20463;-62
2021/04/27 09:59:30;;;;;;;2.83;2.20;;;;;;;;;;5095401;28;20442;-61
2021/04/27 10:02:00;;;;;;;2.53;2.07;;;;;;;;;;5095680;28;20480;-63
2021/04/27 10:04:27;;;;;;;3.00;1.80;;;;;;;;;;5096486;28;20442;-63
2021/04/27 10:06:55;;;;;;;5.17;2.70;;;;;;;;;;5095134;28;20493;-61
2021/04/27 10:09:22;;;;;;;4.70;2.70;;;;;;;;;;5095213;28;20446;-62
2021/04/27 10:11:51;;;;;;;7.47;2.43;;;;;;;;;;5095411;28;20463;-62
2021/04/27 10:14:18;;;;;;;5.80;2.53;;;;;;;;;;5095530;28;20483;-60
2021/04/27 10:16:45;;;;;;;4.97;2.13;;;;;;;;;;5095670;28;20476;-61
2021/04/27 10:19:12;;;;;;;3.43;2.63;;;;;;;;;;5096377;28;20453;-61
2021/04/27 10:21:39;;;;;;;7.20;2.23;;;;;;;;;;5096227;28;20452;-61
2021/04/27 10:24:08;;;;;;;5.30;2.30;;;;;;;;;;5096894;28;20442;-61
2021/04/27 10:26:36;;;;;;;7.50;2.50;;;;;;;;;;5101649;28;20512;-61
2021/04/27 10:29:06;;;;;;;4.10;1.90;;;;;;;;;;5107920;28;20453;-60
2021/04/27 10:31:34;;;;;;;6.70;2.63;;;;;;;;;;5106309;28;20504;-61
2021/04/27 10:34:02;;;;;;;2.93;2.10;;;;;;;;;;5107852;28;20457;-60
2021/04/27 10:36:29;;;;;;;6.30;2.70;;;;;;;;;;5105629;28;20462;-61
2021/04/27 10:38:57;;;;;;;2.73;2.50;;;;;;;;;;5106108;28;20468;-61
2021/04/27 10:41:42;;;;;;;4.40;2.50;;;;;;;;;;5105334;28;20447;-60
2021/04/27 10:44:09;;;;;;;6.10;2.87;;;;;;;;;;5104793;28;20800;-59
2021/04/27 10:46:54;;;;;;;5.93;2.50;;;;;;;;;;5104869;28;20483;-61
2021/04/27 10:49:23;;;;;;;4.93;2.90;;;;;;;;;;5105910;28;20447;-61
2021/04/27 10:51:50;;;;;;;5.00;3.10;;;;;;;;;;5106116;28;20517;-61
2021/04/27 10:54:21;;;;;;;3.63;2.77;;;;;;;;;;5102892;28;20782;-60
2021/04/27 10:56:49;;;;;;;5.30;2.90;;;;;;;;;;5099006;28;20460;-62
2021/04/27 10:59:17;;;;;;;2.97;2.10;;;;;;;;;;5098979;28;20945;-61
2021/04/27 11:01:45;;;;;;;2.97;2.60;;;;;;;;;;5100969;28;20452;-61
2021/04/27 11:04:29;;;;;;;3.80;2.70;;;;;;;;;;5102703;28;20753;-61
2021/04/27 11:07:12;;;;;;;3.00;2.40;;;;;;;;;;5101505;28;20491;-61
2021/04/27 11:09:39;;;;;;;9.40;3.10;;;;;;;;;;5101680;28;20546;-62
2021/04/27 11:12:26;;;;;;;2.90;2.50;;;;;;;;;;5101287;28;20784;-61
2021/04/27 11:14:59;;;;;;;3.27;2.93;;;;;;;;;;5096634;28;20445;-61
2021/04/27 11:17:29;;;;;;;4.00;2.80;;;;;;;;;;5100038;28;20445;-61
2021/04/27 11:19:56;;;;;;;3.30;2.50;;;;;;;;;;5100613;28;20433;-61
2021/04/27 11:22:24;;;;;;;5.90;2.80;;;;;;;;;;5099591;28;20452;-61
2021/04/27 11:24:51;;;;;;;3.17;2.70;;;;;;;;;;5097854;28;20965;-61
2021/04/27 11:27:22;;;;;;;5.33;2.53;;;;;;;;;;5097287;28;20488;-61
2021/04/27 11:29:53;;;;;;;3.90;3.10;;;;;;;;;;5098050;28;20499;-61
2021/04/27 11:32:21;;;;;;;4.07;2.30;;;;;;;;;;5097627;28;20453;-61
2021/04/27 11:34:49;;;;;;;3.53;2.50;;;;;;;;;;5096356;28;20541;-61
2021/04/27 11:37:17;;;;;;;5.33;3.10;;;;;;;;;;5095784;28;20445;-60
2021/04/27 11:39:44;;;;;;;3.77;3.03;;;;;;;;;;5095278;28;20532;-60
2021/04/27 11:42:11;;;;;;;3.10;2.57;;;;;;;;;;5096961;28;20449;-60
2021/04/27 11:44:38;;;;;;;10.10;7.43;;;;;;;;;;5097608;28;20448;-61
2021/04/27 11:47:06;;;;;;;3.63;2.73;;;;;;;;;;5101787;28;20481;-61
2021/04/27 11:49:53;;;;;;;3.43;3.13;;;;;;;;;;5101106;28;20449;-60
2021/04/27 11:52:38;;;;;;;3.30;2.67;;;;;;;;;;5099177;28;20444;-60
2021/04/27 11:55:10;;;;;;;3.50;2.83;;;;;;;;;;5094441;28;20474;-62
2021/04/27 11:57:36;;;;;;;4.40;3.27;;;;;;;;;;5094377;28;20450;-61
2021/04/27 12:00:04;;;;;;;6.83;3.10;;;;;;;;;;5094528;28;20441;-61
2021/04/27 12:02:32;;;;;;;4.10;2.97;;;;;;;;;;5093869;28;20450;-61
2021/04/27 12:05:00;;;;;;;5.27;3.37;;;;;;;;;;5093533;28;20438;-62
2021/04/27 12:07:27;;;;;;;4.60;3.13;;;;;;;;;;5093635;28;20558;-61
2021/04/27 12:09:54;;;;;;;6.83;3.10;;;;;;;;;;5096770;28;20513;-60
2021/04/27 12:12:21;;;;;;;9.43;3.80;;;;;;;;;;5103223;28;20496;-60
2021/04/27 12:14:51;;;;;;;8.50;3.17;;;;;;;;;;5099594;28;20447;-64
2021/04/27 12:17:25;;;;;;;4.87;4.10;;;;;;;;;;5098950;28;20438;-62
2021/04/27 12:20:04;;;;;;;5.80;3.53;;;;;;;;;;5094953;28;20537;-61
2021/04/27 12:22:30;;;;;;;3.00;2.73;;;;;;;;;;5093876;28;20431;-61
2021/04/27 12:24:57;;;;;;;5.90;3.70;;;;;;;;;;5093595;28;20442;-61
2021/04/27 12:27:25;;;;;;;7.20;3.37;;;;;;;;;;5093237;28;20481;-61
2021/04/27 12:29:55;;;;;;;6.30;3.23;;;;;;;;;;5097431;28;20434;-61
2021/04/27 12:32:26;;;;;;;5.20;3.43;;;;;;;;;;5097679;28;20444;-61
2021/04/27 12:34:56;;;;;;;4.57;3.23;;;;;;;;;;5097358;28;20524;-62
2021/04/27 12:37:25;;;;;;;3.50;2.67;;;;;;;;;;5097502;28;20442;-62
2021/04/27 12:39:53;;;;;;;3.80;3.10;;;;;;;;;;5098372;28;20871;-62
2021/04/27 12:42:21;;;;;;;3.20;2.90;;;;;;;;;;5099384;28;20450;-61
2021/04/27 12:44:55;;;;;;;5.07;3.67;;;;;;;;;;5098165;28;20450;-61
2021/04/27 12:47:23;;;;;;;3.70;3.00;;;;;;;;;;5098554;28;20507;-62
2021/04/27 12:50:00;;;;;;;4.37;3.00;;;;;;;;;;5097597;28;20447;-61
2021/04/27 12:52:28;;;;;;;3.70;3.03;;;;;;;;;;5097216;28;20441;-61
2021/04/27 12:55:00;;;;;;;3.20;2.63;;;;;;;;;;5096572;28;21000;-61
2021/04/27 12:57:27;;;;;;;4.80;2.80;;;;;;;;;;5097131;28;20446;-60
2021/04/27 12:59:55;;;;;;;3.43;3.00;;;;;;;;;;5097092;28;20495;-62
2021/04/27 13:02:22;;;;;;;3.00;2.70;;;;;;;;;;5097304;28;20453;-62
2021/04/27 13:04:52;;;;;;;5.40;3.00;;;;;;;;;;5097023;28;20816;-61
2021/04/27 13:07:22;;;;;;;4.23;2.83;;;;;;;;;;5096743;28;20486;-61
2021/04/27 13:09:50;;;;;;;4.57;3.33;;;;;;;;;;5097287;28;20450;-62
2021/04/27 13:12:17;;;;;;;3.23;2.90;;;;;;;;;;5097278;28;20441;-61
2021/04/27 13:14:44;;;;;;;6.13;3.93;;;;;;;;;;5098240;28;20506;-59
2021/04/27 13:17:22;;;;;;;5.20;3.23;;;;;;;;;;5096983;28;20446;-59
2021/04/27 13:19:50;;;;;;;4.73;2.80;;;;;;;;;;5097320;28;20426;-60
2021/04/27 13:22:18;;;;;;;5.73;3.37;;;;;;;;;;5096809;28;20452;-59
2021/04/27 13:24:46;;;;;;;3.40;3.00;;;;;;;;;;5096432;28;20453;-60
2021/04/27 13:27:15;;;;;;;4.00;2.63;;;;;;;;;;5097206;28;20489;-61
2021/04/27 13:29:43;;;;;;;3.90;2.70;;;;;;;;;;5098149;28;20446;-60
2021/04/27 13:32:14;;;;;;;4.63;3.27;;;;;;;;;;5098299;28;20511;-60
2021/04/27 13:34:41;;;;;;;3.70;2.90;;;;;;;;;;5098442;28;20551;-60
2021/04/27 13:37:08;;;;;;;6.40;4.43;;;;;;;;;;5097647;28;20472;-59
2021/04/27 13:39:35;;;;;;;3.70;3.20;;;;;;;;;;5097699;28;20438;-60
2021/04/27 13:42:02;;;;;;;4.30;2.93;;;;;;;;;;5097483;28;20462;-60
2021/04/27 13:44:29;;;;;;;3.80;3.50;;;;;;;;;;5097651;28;20445;-60
2021/04/27 13:46:56;;;;;;;5.10;3.70;;;;;;;;;;5098465;28;20509;-60
2021/04/27 13:49:23;;;;;;;4.83;2.80;;;;;;;;;;5097077;28;20454;-60
2021/04/27 13:51:50;;;;;;;3.10;2.80;;;;;;;;;;5096894;28;20451;-59
2021/04/27 13:54:16;;;;;;;3.30;2.73;;;;;;;;;;5097006;28;20498;-60
2021/04/27 13:56:43;;;;;;;3.97;3.07;;;;;;;;;;5097042;28;20990;-59
2021/04/27 13:59:10;;;;;;;4.60;3.10;;;;;;;;;;5097153;28;20930;-60
2021/04/27 14:01:40;;;;;;;5.00;3.00;;;;;;;;;;5096614;28;20814;-60
2021/04/27 14:04:07;;;;;;;3.27;2.97;;;;;;;;;;5096661;28;20453;-60
2021/04/27 14:06:34;;;;;;;3.90;3.50;;;;;;;;;;5095939;28;20993;-60
2021/04/27 14:09:01;;;;;;;4.30;3.00;;;;;;;;;;5103865;28;20445;-60
2021/04/27 14:11:28;;;;;;;4.00;2.90;;;;;;;;;;5104691;28;20523;-60
2021/04/27 14:13:54;;;;;;;4.40;2.90;;;;;;;;;;5100613;28;20439;-60
2021/04/27 14:16:21;;;;;;;4.00;3.00;;;;;;;;;;5101752;28;20477;-59
2021/04/27 14:18:49;;;;;;;6.37;3.07;;;;;;;;;;5100870;28;20890;-58
2021/04/27 14:21:16;;;;;;;4.30;3.10;;;;;;;;;;5098479;28;20549;-58
2021/04/27 14:23:42;;;;;;;3.17;2.70;;;;;;;;;;5096762;28;20445;-60
2021/04/27 14:26:09;;;;;;;4.77;3.00;;;;;;;;;;5095947;28;20459;-60
2021/04/27 14:28:36;;;;;;;4.00;2.87;;;;;;;;;;5095162;28;20481;-59
2021/04/27 14:31:03;;;;;;;3.90;3.10;;;;;;;;;;5095510;28;20442;-60
2021/04/27 14:33:30;;;;;;;8.20;5.97;;;;;;;;;;5095790;28;20450;-60
2021/04/27 14:35:57;;;;;;;5.77;4.57;;;;;;;;;;5095257;28;20469;-59
2021/04/27 14:38:24;;;;;;;6.10;5.40;;;;;;;;;;5098535;28;20444;-60
2021/04/27 14:40:51;;;;;;;6.30;4.43;;;;;;;;;;5098009;28;20474;-61
2021/04/27 14:43:19;;;;;;;4.03;3.63;;;;;;;;;;5097963;28;20507;-60
2021/04/27 14:45:46;;;;;;;4.63;3.57;;;;;;;;;;5095013;28;20469;-60
2021/04/27 14:48:12;;;;;;;5.00;3.30;;;;;;;;;;5094578;28;20480;-59
2021/04/27 14:50:39;;;;;;;3.37;3.00;;;;;;;;;;5094760;28;20461;-59